createdAt,value
2018-12-05T00:03:01.110Z,0.595398
2018-12-05T00:08:23.889Z,0.675964
2018-12-05T00:13:46.602Z,0.585327
2018-12-05T00:19:09.363Z,0.776672
2018-12-05T00:24:32.088Z,0.837097
2018-12-05T00:29:55.064Z,0.816956
2018-12-05T00:35:17.856Z,0.796814
2018-12-05T00:40:40.677Z,0.736389
2018-12-05T00:46:03.622Z,0.706177
2018-12-05T00:51:26.382Z,0.716248
2018-12-05T00:56:49.121Z,0.665894
2018-12-05T01:02:11.787Z,0.49469
2018-12-05T01:07:35.107Z,0.414124
2018-12-05T01:12:57.911Z,0.313416
2018-12-05T01:18:20.636Z,0.283203
2018-12-05T01:23:43.488Z,0.192566
2018-12-05T01:29:06.341Z,0.162354
2018-12-05T01:34:29.054Z,0.12207
2018-12-05T01:39:51.683Z,0.172424
2018-12-05T01:45:14.396Z,0.152283
2018-12-05T01:50:37.103Z,0.071716
2018-12-05T01:55:59.854Z,0.021362
2018-12-05T02:01:22.570Z,0.011292
2018-12-05T02:06:45.342Z,-0.089417
2018-12-05T02:12:08.038Z,-0.26062
2018-12-05T02:17:30.911Z,-0.119629
2018-12-05T02:22:54.570Z,-0.00885
2018-12-05T02:28:17.371Z,-0.079346
2018-12-05T02:33:40.060Z,0.162354
2018-12-05T02:39:02.989Z,0.132141
2018-12-05T02:44:25.710Z,0.192566
2018-12-05T02:49:48.371Z,0.12207
2018-12-05T02:55:11.105Z,0.132141
2018-12-05T03:00:33.746Z,0.333557
2018-12-05T03:05:56.398Z,0.12207
2018-12-05T03:11:19.095Z,0.081787
2018-12-05T03:16:41.856Z,0.071716
2018-12-05T03:22:04.630Z,0.12207
2018-12-05T03:27:27.440Z,0.101929
2018-12-05T03:32:50.145Z,0.101929
2018-12-05T03:38:12.929Z,0.101929
2018-12-05T03:43:35.623Z,-0.049133
2018-12-05T03:48:58.446Z,-0.018921
2018-12-05T03:54:21.253Z,-0.089417
2018-12-05T03:59:44.041Z,-0.210266
2018-12-05T04:05:06.746Z,-0.200195
2018-12-05T04:10:29.515Z,-0.270691
2018-12-05T04:15:52.329Z,-0.270691
2018-12-05T04:21:15.056Z,-0.169983
2018-12-05T04:26:37.755Z,-0.351257
2018-12-05T04:32:00.468Z,-0.391541
2018-12-05T04:37:23.208Z,-0.321045
2018-12-05T04:42:46.009Z,-0.391541
2018-12-05T04:48:08.799Z,-0.502319
2018-12-05T04:53:31.636Z,-0.76416
2018-12-05T04:58:54.338Z,-0.623169
2018-12-05T05:04:17.060Z,-0.552673
2018-12-05T05:09:39.891Z,-0.421753
2018-12-05T05:15:02.726Z,-0.502319
2018-12-05T05:20:25.622Z,-0.451965
2018-12-05T05:25:48.845Z,-0.391541
2018-12-05T05:31:11.660Z,-0.391541
2018-12-05T05:36:34.325Z,-0.391541
2018-12-05T05:41:57.448Z,-0.341187
2018-12-05T05:47:20.016Z,-0.351257
2018-12-05T05:52:42.724Z,-0.371399
2018-12-05T05:58:05.525Z,-0.321045
2018-12-05T06:03:28.267Z,-0.391541
2018-12-05T06:08:50.971Z,-0.321045
2018-12-05T06:14:13.656Z,-0.391541
2018-12-05T06:19:36.348Z,-0.451965
2018-12-05T06:24:59.094Z,-0.472107
2018-12-05T06:30:21.957Z,-0.230408
2018-12-05T06:35:44.618Z,-0.059204
2018-12-05T06:41:07.382Z,-0.210266
2018-12-05T06:46:30.063Z,-0.159912
2018-12-05T06:51:53.223Z,-0.472107
2018-12-05T06:57:16.116Z,-0.451965
2018-12-05T07:02:38.986Z,-0.38147
2018-12-05T07:08:03.145Z,-0.159912
2018-12-05T07:13:27.461Z,-0.200195
2018-12-05T07:18:50.265Z,-0.26062
2018-12-05T07:24:16.579Z,-0.059204
2018-12-05T07:29:41.751Z,-0.1297
2018-12-05T07:35:06.224Z,0.011292
2018-12-05T07:40:32.597Z,0.172424
2018-12-05T07:45:55.545Z,0.162354
2018-12-05T07:51:20.912Z,0.101929
2018-12-05T07:56:47.904Z,0.202637
2018-12-05T08:02:11.452Z,0.263062
2018-12-05T08:07:34.136Z,0.414124
2018-12-05T08:12:56.933Z,0.61554
2018-12-05T08:18:19.990Z,0.706177
2018-12-05T08:23:50.945Z,0.706177
2018-12-05T08:29:32.454Z,0.766602
2018-12-05T08:35:04.196Z,0.927734
2018-12-05T08:40:59.822Z,1.320496
2018-12-05T08:46:37.339Z,1.683044
2018-12-05T08:52:14.875Z,1.894531
2018-12-05T08:57:42.293Z,2.00531
2018-12-05T09:03:09.242Z,2.226868
2018-12-05T09:08:32.403Z,2.327576
2018-12-05T09:13:57.205Z,2.478638
2018-12-05T09:19:20.112Z,2.76062
2018-12-05T09:25:05.159Z,3.072815
2018-12-05T09:30:34.265Z,3.284302
2018-12-05T09:36:03.351Z,3.616638
2018-12-05T09:41:26.881Z,3.807983
2018-12-05T09:46:53.325Z,3.989258
2018-12-05T09:52:16.438Z,4.01947
2018-12-05T09:57:43.506Z,4.14032
2018-12-05T10:03:11.451Z,4.251099
2018-12-05T10:08:36.877Z,4.351807
2018-12-05T10:14:03.191Z,4.241028
2018-12-05T10:19:27.275Z,4.200745
2018-12-05T10:24:51.062Z,4.291382
2018-12-05T10:30:14.128Z,4.472656
2018-12-05T10:35:39.076Z,4.794922
2018-12-05T10:41:16.933Z,5.046692
2018-12-05T10:46:41.629Z,4.966125
2018-12-05T10:52:04.637Z,5.107117
2018-12-05T10:57:27.305Z,5.509949
2018-12-05T11:02:49.946Z,5.560303
2018-12-05T11:08:12.658Z,5.630798
2018-12-05T11:13:35.746Z,5.509949
2018-12-05T11:19:00.217Z,5.449524
2018-12-05T11:24:23.803Z,5.379028
2018-12-05T11:29:46.781Z,5.348816
2018-12-05T11:35:12.555Z,5.26825
2018-12-05T11:40:36.932Z,5.227966
2018-12-05T11:45:59.576Z,5.258179
2018-12-05T11:51:22.243Z,5.318604
2018-12-05T11:56:45.699Z,5.479736
2018-12-05T12:02:08.676Z,5.409241
2018-12-05T12:07:33.886Z,5.439453
2018-12-05T12:12:57.113Z,5.449524
2018-12-05T12:18:20.355Z,5.318604
2018-12-05T12:23:46.065Z,5.379028
2018-12-05T12:29:08.865Z,5.348816
2018-12-05T12:34:31.601Z,5.348816
2018-12-05T12:39:54.267Z,5.328674
2018-12-05T12:45:20.139Z,5.368958
2018-12-05T12:50:44.412Z,5.439453
2018-12-05T12:56:07.127Z,5.489807
2018-12-05T13:01:30.502Z,5.560303
2018-12-05T13:06:54.987Z,5.52002
2018-12-05T13:12:18.563Z,5.550232
2018-12-05T13:17:41.249Z,5.600586
2018-12-05T13:23:03.879Z,5.731506
2018-12-05T13:28:26.528Z,5.741577
2018-12-05T13:33:49.932Z,5.741577
2018-12-05T13:39:12.616Z,5.701294
2018-12-05T13:44:35.339Z,5.630798
2018-12-05T13:49:58.101Z,5.65094
2018-12-05T13:55:20.787Z,5.600586
2018-12-05T14:00:43.453Z,5.620728
2018-12-05T14:06:06.128Z,5.620728
2018-12-05T14:11:27.940Z,5.630798
2018-12-05T14:16:50.628Z,5.630798
2018-12-05T14:22:13.366Z,5.560303
2018-12-05T14:27:35.955Z,5.509949
2018-12-05T14:32:58.673Z,5.479736
2018-12-05T14:38:22.408Z,5.479736
2018-12-05T14:43:45.169Z,5.469666
2018-12-05T14:49:07.871Z,5.419312
2018-12-05T14:54:30.990Z,5.39917
2018-12-05T14:59:53.646Z,5.368958
2018-12-05T15:05:16.357Z,5.348816
2018-12-05T15:10:39.030Z,5.328674
2018-12-05T15:16:03.860Z,5.298462
2018-12-05T15:21:27.063Z,5.227966
2018-12-05T15:26:49.779Z,5.187683
2018-12-05T15:32:12.433Z,5.076904
2018-12-05T15:37:35.160Z,5.036621
2018-12-05T15:42:58.009Z,4.986267
2018-12-05T15:48:20.805Z,4.956055
2018-12-05T15:53:43.492Z,4.935913
2018-12-05T15:59:06.130Z,4.925842
2018-12-05T16:04:28.851Z,4.905701
2018-12-05T16:09:51.520Z,4.905701
2018-12-05T16:15:14.276Z,4.89563
2018-12-05T16:20:36.877Z,4.835205
2018-12-05T16:25:59.590Z,4.865417
2018-12-05T16:31:23.241Z,4.875488
2018-12-05T16:36:45.938Z,4.835205
2018-12-05T16:42:08.690Z,4.825134
2018-12-05T16:47:31.342Z,4.794922
2018-12-05T16:52:54.105Z,4.744568
2018-12-05T16:58:16.772Z,4.684143
2018-12-05T17:03:39.605Z,4.694214
2018-12-05T17:09:03.207Z,4.674072
2018-12-05T17:14:27.010Z,4.674072
2018-12-05T17:19:48.703Z,4.694214
2018-12-05T17:25:11.496Z,4.714355
2018-12-05T17:30:34.860Z,4.694214
2018-12-05T17:35:57.552Z,4.694214
2018-12-05T17:41:20.295Z,4.724426
2018-12-05T17:46:42.940Z,4.724426
2018-12-05T17:52:05.689Z,4.674072
2018-12-05T17:57:28.417Z,4.653931
2018-12-05T18:02:51.110Z,4.653931
2018-12-05T18:08:13.945Z,4.684143
2018-12-05T18:13:36.881Z,4.674072
2018-12-05T18:18:59.531Z,4.653931
2018-12-05T18:24:23.264Z,4.623718
2018-12-05T18:29:45.925Z,4.64386
2018-12-05T18:35:08.668Z,4.674072
2018-12-05T18:40:31.819Z,4.674072
2018-12-05T18:45:54.554Z,4.674072
2018-12-05T18:51:17.271Z,4.653931
2018-12-05T18:56:39.907Z,4.613647
2018-12-05T19:02:03.414Z,4.623718
2018-12-05T19:07:26.123Z,4.613647
2018-12-05T19:12:48.849Z,4.653931
2018-12-05T19:18:11.555Z,4.724426
2018-12-05T19:23:34.222Z,4.744568
2018-12-05T19:28:56.910Z,4.724426
2018-12-05T19:34:19.681Z,4.794922
2018-12-05T19:39:42.361Z,4.855347
2018-12-05T19:45:05.053Z,4.835205
2018-12-05T19:50:27.776Z,4.835205
2018-12-05T19:55:50.565Z,4.865417
2018-12-05T20:01:13.195Z,4.89563
2018-12-05T20:06:36.001Z,4.865417
2018-12-05T20:11:58.853Z,4.794922
2018-12-05T20:17:22.678Z,4.754639
2018-12-05T20:22:47.438Z,4.744568
2018-12-05T20:28:13.177Z,4.714355
2018-12-05T20:33:38.474Z,4.653931
2018-12-05T20:39:02.439Z,4.653931
2018-12-05T20:44:27.489Z,4.684143
2018-12-05T20:49:53.347Z,4.684143
2018-12-05T20:55:19.305Z,4.714355
2018-12-05T21:00:43.594Z,4.77478
2018-12-05T21:06:07.346Z,4.804993
2018-12-05T21:11:30.850Z,4.855347
2018-12-05T21:16:54.267Z,4.89563
2018-12-05T21:22:17.328Z,4.966125
2018-12-05T21:27:40.141Z,5.056763
2018-12-05T21:33:02.944Z,5.117188
2018-12-05T21:38:25.628Z,5.167542
2018-12-05T21:43:48.315Z,5.197754
2018-12-05T21:49:11.122Z,5.217896
2018-12-05T21:54:34.960Z,5.227966
2018-12-05T21:59:59.132Z,5.258179
2018-12-05T22:05:21.945Z,5.318604
2018-12-05T22:10:44.900Z,5.26825
2018-12-05T22:16:07.590Z,5.288391
2018-12-05T22:21:30.531Z,5.298462
2018-12-05T22:26:53.941Z,5.318604
2018-12-05T22:32:16.731Z,5.379028
2018-12-05T22:37:39.627Z,5.449524
2018-12-05T22:43:02.389Z,5.469666
2018-12-05T22:48:25.241Z,5.479736
2018-12-05T22:53:48.572Z,5.469666
2018-12-05T22:59:11.393Z,5.479736
2018-12-05T23:04:34.566Z,5.550232
2018-12-05T23:09:57.274Z,5.550232
2018-12-05T23:15:19.953Z,5.479736
2018-12-05T23:20:42.820Z,5.52002
2018-12-05T23:26:05.611Z,5.52002
2018-12-05T23:31:28.361Z,5.489807
2018-12-05T23:36:51.184Z,5.509949
2018-12-05T23:42:13.913Z,5.479736
2018-12-05T23:47:36.793Z,5.52002
2018-12-05T23:52:59.473Z,5.590515
2018-12-05T23:58:22.136Z,5.620728
